Terminal Aerodrome Forecast
Issued by NWS

Home | Current Version | Previous Version | Text Only | Print | Product List | Glossary On
Versions: 1 2 3 4 5 6 7 8 9 10 11 12
000
FTUS45 KSLC 302334
TAFEVW
TAF
KEVW 302334Z 3100/3124 09011KT P6SM SKC
     FM310400 12006KT P6SM SKC
     FM311700 20010KT P6SM SCT180
     FM311900 23014G24KT P6SM SCT120 SCT180=

USA.gov is the U.S. government's official web portal to all federal, state and local government web resources and services.